TimeCST,TemperatureF,Dew PointF,Humidity,Sea Level PressureIn,VisibilityMPH,Wind Direction,Wind SpeedMPH,Gust SpeedMPH,PrecipitationIn,Events,Conditions,WindDirDegrees,DateUTC
12:53 AM,34.0,24.1,67,30.13,10.0,SE,3.5,-,N/A,,Clear,140,2013-01-08 06:53:00
1:53 AM,34.0,24.1,67,30.14,10.0,NE,3.5,-,N/A,,Clear,50,2013-01-08 07:53:00
2:53 AM,28.0,21.9,78,30.15,10.0,Calm,Calm,-,N/A,,Clear,0,2013-01-08 08:53:00
3:53 AM,32.0,21.9,66,30.14,10.0,Calm,Calm,-,N/A,,Clear,0,2013-01-08 09:53:00
4:53 AM,25.0,19.9,81,30.14,10.0,Calm,Calm,-,N/A,,Clear,0,2013-01-08 10:53:00
5:53 AM,24.8,21.2,86,30.12,10.0,Calm,Calm,-,N/A,,Mostly Cloudy,0,2013-01-08 11:53:00
6:53 AM,24.1,21.0,88,30.16,10.0,Calm,Calm,-,N/A,,Mostly Cloudy,0,2013-01-08 12:53:00
7:53 AM,26.1,21.9,84,30.17,10.0,Calm,Calm,-,N/A,,Scattered Clouds,0,2013-01-08 13:53:00
9:53 AM,41.0,30.0,65,30.17,10.0,Calm,Calm,-,N/A,,Overcast,0,2013-01-08 15:53:00
10:53 AM,51.1,34.0,52,30.15,10.0,South,8.1,-,N/A,,Mostly Cloudy,190,2013-01-08 16:53:00
11:53 AM,54.0,35.1,49,30.11,10.0,South,9.2,-,N/A,,Mostly Cloudy,190,2013-01-08 17:53:00
12:53 PM,55.0,37.0,51,30.07,10.0,SSE,10.4,-,N/A,,Mostly Cloudy,150,2013-01-08 18:53:00
1:53 PM,57.9,37.9,47,30.08,10.0,SSW,13.8,-,N/A,,Scattered Clouds,200,2013-01-08 19:53:00
2:53 PM,55.0,39.0,55,30.09,10.0,South,12.7,-,N/A,,Mostly Cloudy,190,2013-01-08 20:53:00
3:53 PM,53.1,37.9,57,30.11,10.0,South,9.2,-,N/A,,Overcast,180,2013-01-08 21:53:00
4:53 PM,48.9,42.1,77,30.10,9.0,Calm,Calm,-,0.02,Rain,Light Rain,0,2013-01-08 22:53:00
5:46 PM,46.4,44.6,93,30.10,10.0,NW,5.8,-,0.00,,Overcast,320,2013-01-08 23:46:00
5:53 PM,46.9,44.1,90,30.12,10.0,NNW,4.6,-,0.00,,Overcast,330,2013-01-08 23:53:00
6:53 PM,46.9,45.0,93,30.14,10.0,Calm,Calm,-,N/A,,Overcast,0,2013-01-09 00:53:00
7:53 PM,46.9,45.0,93,30.16,10.0,Calm,Calm,-,N/A,,Overcast,0,2013-01-09 01:53:00
8:53 PM,46.9,44.1,90,30.15,10.0,SSE,5.8,-,N/A,,Overcast,160,2013-01-09 02:53:00
9:14 PM,48.2,44.6,87,30.12,9.0,SE,4.6,-,0.01,Rain,Light Rain,140,2013-01-09 03:14:00
9:36 PM,48.2,44.6,87,30.12,10.0,Calm,Calm,-,0.01,,Overcast,0,2013-01-09 03:36:00
9:53 PM,46.9,45.0,93,30.15,10.0,NW,8.1,-,0.01,,Overcast,310,2013-01-09 03:53:00
10:53 PM,46.4,44.6,93,30.19,7.0,NW,3.5,-,N/A,,Overcast,310,2013-01-09 04:53:00
11:53 PM,46.9,45.0,93,30.21,5.0,Calm,Calm,-,0.01,,Overcast,0,2013-01-09 05:53:00